sensor_id;sensor_type;location;lat;lon;timestamp;P1;durP1;ratioP1;P2;durP2;ratioP2
20729;SDS011;10526;50.850;12.928;2023-08-24T00:00:04;12.00;;;5.40;;
20729;SDS011;10526;50.850;12.928;2023-08-24T00:04:27;12.35;;;6.28;;
20729;SDS011;10526;50.850;12.928;2023-08-24T00:08:49;12.45;;;5.40;;
20729;SDS011;10526;50.850;12.928;2023-08-24T00:13:11;15.60;;;6.00;;
20729;SDS011;10526;50.850;12.928;2023-08-24T00:17:34;12.23;;;5.95;;
20729;SDS011;10526;50.850;12.928;2023-08-24T00:21:56;13.18;;;6.70;;
20729;SDS011;10526;50.850;12.928;2023-08-24T00:26:18;13.15;;;6.57;;
20729;SDS011;10526;50.850;12.928;2023-08-24T00:30:40;12.73;;;5.72;;
20729;SDS011;10526;50.850;12.928;2023-08-24T00:35:03;12.57;;;6.78;;
20729;SDS011;10526;50.850;12.928;2023-08-24T00:39:29;12.63;;;5.88;;
20729;SDS011;10526;50.850;12.928;2023-08-24T00:43:51;12.32;;;6.25;;
20729;SDS011;10526;50.850;12.928;2023-08-24T00:48:15;13.00;;;5.88;;
20729;SDS011;10526;50.850;12.928;2023-08-24T00:52:38;12.50;;;6.30;;
20729;SDS011;10526;50.850;12.928;2023-08-24T00:57:02;13.20;;;7.28;;
20729;SDS011;10526;50.850;12.928;2023-08-24T01:01:24;15.05;;;6.97;;
20729;SDS011;10526;50.850;12.928;2023-08-24T01:05:46;12.43;;;7.32;;
20729;SDS011;10526;50.850;12.928;2023-08-24T01:10:09;13.35;;;7.75;;
20729;SDS011;10526;50.850;12.928;2023-08-24T01:14:50;14.40;;;8.57;;
20729;SDS011;10526;50.850;12.928;2023-08-24T01:19:25;13.15;;;7.80;;
20729;SDS011;10526;50.850;12.928;2023-08-24T01:24:12;12.30;;;7.72;;
20729;SDS011;10526;50.850;12.928;2023-08-24T01:28:45;15.10;;;8.52;;
20729;SDS011;10526;50.850;12.928;2023-08-24T01:33:09;14.40;;;7.93;;
20729;SDS011;10526;50.850;12.928;2023-08-24T01:37:33;16.48;;;8.57;;
20729;SDS011;10526;50.850;12.928;2023-08-24T01:41:57;14.27;;;8.95;;
20729;SDS011;10526;50.850;12.928;2023-08-24T01:46:25;17.33;;;9.18;;
20729;SDS011;10526;50.850;12.928;2023-08-24T01:50:47;41.75;;;26.58;;
20729;SDS011;10526;50.850;12.928;2023-08-24T01:55:11;14.07;;;9.02;;
20729;SDS011;10526;50.850;12.928;2023-08-24T01:59:35;17.17;;;9.77;;
20729;SDS011;10526;50.850;12.928;2023-08-24T02:03:57;15.52;;;8.80;;
20729;SDS011;10526;50.850;12.928;2023-08-24T02:08:20;14.85;;;8.98;;
20729;SDS011;10526;50.850;12.928;2023-08-24T02:12:42;17.23;;;8.98;;
20729;SDS011;10526;50.850;12.928;2023-08-24T02:17:04;15.48;;;9.52;;
20729;SDS011;10526;50.850;12.928;2023-08-24T02:21:26;15.73;;;8.40;;
20729;SDS011;10526;50.850;12.928;2023-08-24T02:25:48;15.57;;;8.73;;
20729;SDS011;10526;50.850;12.928;2023-08-24T02:30:10;16.52;;;9.00;;
20729;SDS011;10526;50.850;12.928;2023-08-24T02:34:33;13.80;;;9.05;;
20729;SDS011;10526;50.850;12.928;2023-08-24T02:38:55;32.95;;;22.17;;
20729;SDS011;10526;50.850;12.928;2023-08-24T02:43:18;20.23;;;10.55;;
20729;SDS011;10526;50.850;12.928;2023-08-24T02:47:40;15.63;;;9.90;;
20729;SDS011;10526;50.850;12.928;2023-08-24T02:52:02;18.73;;;9.88;;
20729;SDS011;10526;50.850;12.928;2023-08-24T02:56:24;18.55;;;10.38;;
20729;SDS011;10526;50.850;12.928;2023-08-24T03:00:47;15.88;;;9.85;;
20729;SDS011;10526;50.850;12.928;2023-08-24T03:05:09;21.50;;;14.35;;
20729;SDS011;10526;50.850;12.928;2023-08-24T03:09:31;18.02;;;10.38;;
20729;SDS011;10526;50.850;12.928;2023-08-24T03:13:55;13.95;;;9.20;;
20729;SDS011;10526;50.850;12.928;2023-08-24T03:18:17;18.13;;;9.98;;
20729;SDS011;10526;50.850;12.928;2023-08-24T03:22:39;18.98;;;12.00;;
20729;SDS011;10526;50.850;12.928;2023-08-24T03:27:01;17.52;;;9.15;;
20729;SDS011;10526;50.850;12.928;2023-08-24T03:31:23;16.60;;;10.13;;
20729;SDS011;10526;50.850;12.928;2023-08-24T03:35:47;20.15;;;10.20;;
20729;SDS011;10526;50.850;12.928;2023-08-24T03:40:11;20.63;;;11.63;;
20729;SDS011;10526;50.850;12.928;2023-08-24T03:44:34;15.50;;;11.18;;
20729;SDS011;10526;50.850;12.928;2023-08-24T03:48:56;18.15;;;12.80;;
20729;SDS011;10526;50.850;12.928;2023-08-24T03:53:18;22.73;;;12.82;;
20729;SDS011;10526;50.850;12.928;2023-08-24T03:57:41;19.60;;;13.20;;
20729;SDS011;10526;50.850;12.928;2023-08-24T04:02:03;20.00;;;13.60;;
20729;SDS011;10526;50.850;12.928;2023-08-24T04:06:25;20.55;;;13.63;;
20729;SDS011;10526;50.850;12.928;2023-08-24T04:10:47;19.17;;;13.35;;
20729;SDS011;10526;50.850;12.928;2023-08-24T04:15:09;18.63;;;13.88;;
20729;SDS011;10526;50.850;12.928;2023-08-24T04:19:32;19.90;;;13.50;;
20729;SDS011;10526;50.850;12.928;2023-08-24T04:23:54;19.55;;;14.13;;
20729;SDS011;10526;50.850;12.928;2023-08-24T04:28:16;27.13;;;13.07;;
20729;SDS011;10526;50.850;12.928;2023-08-24T04:32:38;25.45;;;12.38;;
20729;SDS011;10526;50.850;12.928;2023-08-24T04:37:00;18.23;;;11.20;;
20729;SDS011;10526;50.850;12.928;2023-08-24T04:41:22;19.58;;;11.20;;
20729;SDS011;10526;50.850;12.928;2023-08-24T04:45:51;16.33;;;10.38;;
20729;SDS011;10526;50.850;12.928;2023-08-24T04:50:15;15.55;;;8.88;;
20729;SDS011;10526;50.850;12.928;2023-08-24T04:54:37;14.27;;;7.43;;
20729;SDS011;10526;50.850;12.928;2023-08-24T04:58:59;11.75;;;5.63;;
20729;SDS011;10526;50.850;12.928;2023-08-24T05:03:22;12.82;;;4.57;;
20729;SDS011;10526;50.850;12.928;2023-08-24T05:07:44;13.68;;;4.47;;
20729;SDS011;10526;50.850;12.928;2023-08-24T05:12:06;13.57;;;4.50;;
20729;SDS011;10526;50.850;12.928;2023-08-24T05:16:29;10.15;;;4.15;;
20729;SDS011;10526;50.850;12.928;2023-08-24T05:20:51;13.38;;;4.80;;
20729;SDS011;10526;50.850;12.928;2023-08-24T05:25:13;15.23;;;5.10;;
20729;SDS011;10526;50.850;12.928;2023-08-24T05:29:37;12.65;;;4.18;;
20729;SDS011;10526;50.850;12.928;2023-08-24T05:33:59;19.65;;;4.50;;
20729;SDS011;10526;50.850;12.928;2023-08-24T05:38:22;12.77;;;4.97;;
20729;SDS011;10526;50.850;12.928;2023-08-24T05:42:44;9.50;;;3.70;;
20729;SDS011;10526;50.850;12.928;2023-08-24T05:47:06;9.45;;;3.35;;
20729;SDS011;10526;50.850;12.928;2023-08-24T05:51:28;8.32;;;3.50;;
20729;SDS011;10526;50.850;12.928;2023-08-24T05:55:50;14.00;;;3.60;;
20729;SDS011;10526;50.850;12.928;2023-08-24T06:00:12;10.38;;;3.00;;
20729;SDS011;10526;50.850;12.928;2023-08-24T06:04:36;9.80;;;3.67;;
20729;SDS011;10526;50.850;12.928;2023-08-24T06:08:58;15.85;;;3.67;;
20729;SDS011;10526;50.850;12.928;2023-08-24T06:13:20;11.70;;;2.75;;
20729;SDS011;10526;50.850;12.928;2023-08-24T06:17:41;10.40;;;3.08;;
20729;SDS011;10526;50.850;12.928;2023-08-24T06:22:04;10.35;;;2.83;;
20729;SDS011;10526;50.850;12.928;2023-08-24T06:26:26;8.98;;;2.50;;
20729;SDS011;10526;50.850;12.928;2023-08-24T06:30:48;9.82;;;2.38;;
20729;SDS011;10526;50.850;12.928;2023-08-24T06:35:10;7.93;;;2.63;;
20729;SDS011;10526;50.850;12.928;2023-08-24T06:39:35;8.30;;;2.92;;
20729;SDS011;10526;50.850;12.928;2023-08-24T06:43:58;13.38;;;3.13;;
20729;SDS011;10526;50.850;12.928;2023-08-24T06:48:20;8.25;;;2.63;;
20729;SDS011;10526;50.850;12.928;2023-08-24T06:52:42;13.45;;;3.38;;
20729;SDS011;10526;50.850;12.928;2023-08-24T06:57:04;11.63;;;3.55;;
20729;SDS011;10526;50.850;12.928;2023-08-24T07:01:26;7.82;;;2.65;;
20729;SDS011;10526;50.850;12.928;2023-08-24T07:05:49;8.07;;;2.38;;
20729;SDS011;10526;50.850;12.928;2023-08-24T07:10:11;5.45;;;2.40;;
20729;SDS011;10526;50.850;12.928;2023-08-24T07:14:33;5.93;;;2.55;;
20729;SDS011;10526;50.850;12.928;2023-08-24T07:18:55;12.93;;;2.58;;
20729;SDS011;10526;50.850;12.928;2023-08-24T07:23:16;7.07;;;2.20;;
20729;SDS011;10526;50.850;12.928;2023-08-24T07:27:38;10.18;;;2.28;;
20729;SDS011;10526;50.850;12.928;2023-08-24T07:32:00;9.85;;;2.45;;
20729;SDS011;10526;50.850;12.928;2023-08-24T07:36:22;7.20;;;2.20;;
20729;SDS011;10526;50.850;12.928;2023-08-24T07:40:44;6.20;;;1.77;;
20729;SDS011;10526;50.850;12.928;2023-08-24T07:45:06;5.35;;;1.90;;
20729;SDS011;10526;50.850;12.928;2023-08-24T07:49:29;9.25;;;2.58;;
20729;SDS011;10526;50.850;12.928;2023-08-24T07:53:51;8.20;;;2.58;;
20729;SDS011;10526;50.850;12.928;2023-08-24T07:58:13;8.32;;;2.30;;
20729;SDS011;10526;50.850;12.928;2023-08-24T08:02:35;6.53;;;2.00;;
20729;SDS011;10526;50.850;12.928;2023-08-24T08:06:58;7.97;;;2.10;;
20729;SDS011;10526;50.850;12.928;2023-08-24T08:11:20;9.77;;;1.95;;
20729;SDS011;10526;50.850;12.928;2023-08-24T08:15:42;10.40;;;2.00;;
20729;SDS011;10526;50.850;12.928;2023-08-24T08:20:04;5.60;;;2.05;;
20729;SDS011;10526;50.850;12.928;2023-08-24T08:24:27;10.45;;;2.17;;
20729;SDS011;10526;50.850;12.928;2023-08-24T08:28:49;7.93;;;2.13;;
20729;SDS011;10526;50.850;12.928;2023-08-24T08:33:11;2.85;;;1.88;;
20729;SDS011;10526;50.850;12.928;2023-08-24T08:37:33;6.45;;;2.00;;
20729;SDS011;10526;50.850;12.928;2023-08-24T08:41:57;7.70;;;2.00;;
20729;SDS011;10526;50.850;12.928;2023-08-24T08:46:19;4.85;;;2.03;;
20729;SDS011;10526;50.850;12.928;2023-08-24T08:50:42;5.75;;;2.00;;
20729;SDS011;10526;50.850;12.928;2023-08-24T08:55:04;4.78;;;2.05;;
20729;SDS011;10526;50.850;12.928;2023-08-24T08:59:28;6.10;;;1.90;;
20729;SDS011;10526;50.850;12.928;2023-08-24T09:03:51;6.10;;;1.80;;
20729;SDS011;10526;50.850;12.928;2023-08-24T09:08:17;6.22;;;2.15;;
20729;SDS011;10526;50.850;12.928;2023-08-24T09:12:40;5.40;;;1.83;;
20729;SDS011;10526;50.850;12.928;2023-08-24T09:17:02;6.97;;;1.83;;
20729;SDS011;10526;50.850;12.928;2023-08-24T09:21:24;3.92;;;1.75;;
20729;SDS011;10526;50.850;12.928;2023-08-24T09:25:47;4.95;;;1.95;;
20729;SDS011;10526;50.850;12.928;2023-08-24T09:30:10;6.25;;;2.13;;
20729;SDS011;10526;50.850;12.928;2023-08-24T09:34:32;8.55;;;2.00;;
20729;SDS011;10526;50.850;12.928;2023-08-24T09:38:54;4.90;;;1.90;;
20729;SDS011;10526;50.850;12.928;2023-08-24T09:43:17;4.88;;;1.77;;
20729;SDS011;10526;50.850;12.928;2023-08-24T09:47:39;5.47;;;2.28;;
20729;SDS011;10526;50.850;12.928;2023-08-24T09:52:06;6.95;;;2.45;;
20729;SDS011;10526;50.850;12.928;2023-08-24T09:56:29;3.85;;;1.88;;
20729;SDS011;10526;50.850;12.928;2023-08-24T10:00:52;5.45;;;2.30;;
20729;SDS011;10526;50.850;12.928;2023-08-24T10:05:16;7.63;;;2.42;;
20729;SDS011;10526;50.850;12.928;2023-08-24T10:10:06;10.15;;;2.90;;
20729;SDS011;10526;50.850;12.928;2023-08-24T10:14:32;6.53;;;2.30;;
20729;SDS011;10526;50.850;12.928;2023-08-24T10:19:17;6.28;;;2.08;;
20729;SDS011;10526;50.850;12.928;2023-08-24T10:23:41;3.67;;;2.00;;
20729;SDS011;10526;50.850;12.928;2023-08-24T10:28:04;8.10;;;2.65;;
20729;SDS011;10526;50.850;12.928;2023-08-24T10:32:30;6.90;;;2.80;;
20729;SDS011;10526;50.850;12.928;2023-08-24T10:36:53;8.63;;;2.72;;
20729;SDS011;10526;50.850;12.928;2023-08-24T10:41:15;7.47;;;2.85;;
20729;SDS011;10526;50.850;12.928;2023-08-24T10:46:11;8.75;;;3.20;;
20729;SDS011;10526;50.850;12.928;2023-08-24T10:50:32;7.82;;;2.72;;
20729;SDS011;10526;50.850;12.928;2023-08-24T10:54:54;8.00;;;3.42;;
20729;SDS011;10526;50.850;12.928;2023-08-24T10:59:16;5.43;;;2.50;;
20729;SDS011;10526;50.850;12.928;2023-08-24T11:03:40;12.77;;;2.80;;
20729;SDS011;10526;50.850;12.928;2023-08-24T11:08:08;8.10;;;2.88;;
20729;SDS011;10526;50.850;12.928;2023-08-24T11:12:38;7.13;;;3.15;;
20729;SDS011;10526;50.850;12.928;2023-08-24T11:17:24;9.65;;;2.80;;
20729;SDS011;10526;50.850;12.928;2023-08-24T11:21:54;7.18;;;2.63;;
20729;SDS011;10526;50.850;12.928;2023-08-24T11:26:17;5.65;;;2.72;;
20729;SDS011;10526;50.850;12.928;2023-08-24T11:30:40;8.85;;;2.75;;
20729;SDS011;10526;50.850;12.928;2023-08-24T11:35:04;7.32;;;2.55;;
20729;SDS011;10526;50.850;12.928;2023-08-24T11:39:27;9.32;;;2.60;;
20729;SDS011;10526;50.850;12.928;2023-08-24T11:43:59;5.53;;;2.78;;
20729;SDS011;10526;50.850;12.928;2023-08-24T11:48:31;7.28;;;2.60;;
20729;SDS011;10526;50.850;12.928;2023-08-24T11:52:54;7.68;;;2.85;;
20729;SDS011;10526;50.850;12.928;2023-08-24T11:57:16;5.95;;;2.70;;
20729;SDS011;10526;50.850;12.928;2023-08-24T12:01:39;9.45;;;2.63;;
20729;SDS011;10526;50.850;12.928;2023-08-24T12:06:02;7.45;;;2.90;;
20729;SDS011;10526;50.850;12.928;2023-08-24T12:10:40;7.97;;;3.13;;
20729;SDS011;10526;50.850;12.928;2023-08-24T12:15:04;11.85;;;2.90;;
20729;SDS011;10526;50.850;12.928;2023-08-24T12:19:27;5.63;;;2.58;;
20729;SDS011;10526;50.850;12.928;2023-08-24T12:28:21;8.70;;;3.25;;
20729;SDS011;10526;50.850;12.928;2023-08-24T12:32:44;7.70;;;3.17;;
20729;SDS011;10526;50.850;12.928;2023-08-24T12:37:07;5.35;;;2.72;;
20729;SDS011;10526;50.850;12.928;2023-08-24T12:41:31;7.03;;;2.90;;
20729;SDS011;10526;50.850;12.928;2023-08-24T12:45:53;6.68;;;2.70;;
20729;SDS011;10526;50.850;12.928;2023-08-24T12:50:15;9.55;;;3.08;;
20729;SDS011;10526;50.850;12.928;2023-08-24T12:54:37;9.60;;;3.50;;
20729;SDS011;10526;50.850;12.928;2023-08-24T12:58:59;5.85;;;2.55;;
20729;SDS011;10526;50.850;12.928;2023-08-24T13:03:21;11.65;;;3.22;;
20729;SDS011;10526;50.850;12.928;2023-08-24T13:07:43;15.15;;;3.47;;
20729;SDS011;10526;50.850;12.928;2023-08-24T13:12:05;9.88;;;3.47;;
20729;SDS011;10526;50.850;12.928;2023-08-24T13:16:28;6.53;;;3.28;;
20729;SDS011;10526;50.850;12.928;2023-08-24T13:20:50;8.55;;;3.03;;
20729;SDS011;10526;50.850;12.928;2023-08-24T13:25:12;7.53;;;2.85;;
20729;SDS011;10526;50.850;12.928;2023-08-24T13:29:34;7.57;;;2.92;;
20729;SDS011;10526;50.850;12.928;2023-08-24T13:33:56;8.77;;;3.08;;
20729;SDS011;10526;50.850;12.928;2023-08-24T13:38:18;11.55;;;3.20;;
20729;SDS011;10526;50.850;12.928;2023-08-24T13:42:40;12.27;;;3.03;;
20729;SDS011;10526;50.850;12.928;2023-08-24T13:47:02;9.38;;;3.38;;
20729;SDS011;10526;50.850;12.928;2023-08-24T13:51:24;7.18;;;3.17;;
20729;SDS011;10526;50.850;12.928;2023-08-24T13:55:46;6.97;;;2.83;;
20729;SDS011;10526;50.850;12.928;2023-08-24T14:00:08;9.85;;;3.58;;
20729;SDS011;10526;50.850;12.928;2023-08-24T14:04:32;7.75;;;3.45;;
20729;SDS011;10526;50.850;12.928;2023-08-24T14:08:54;7.25;;;2.78;;
20729;SDS011;10526;50.850;12.928;2023-08-24T14:13:17;6.72;;;2.97;;
20729;SDS011;10526;50.850;12.928;2023-08-24T14:17:39;6.28;;;3.08;;
20729;SDS011;10526;50.850;12.928;2023-08-24T14:22:01;5.45;;;3.00;;
20729;SDS011;10526;50.850;12.928;2023-08-24T14:26:23;6.40;;;2.90;;
20729;SDS011;10526;50.850;12.928;2023-08-24T14:30:45;7.75;;;3.13;;
20729;SDS011;10526;50.850;12.928;2023-08-24T14:35:07;7.05;;;2.90;;
20729;SDS011;10526;50.850;12.928;2023-08-24T14:39:29;9.32;;;3.30;;
20729;SDS011;10526;50.850;12.928;2023-08-24T14:43:51;8.75;;;3.40;;
20729;SDS011;10526;50.850;12.928;2023-08-24T14:48:13;7.07;;;2.85;;
20729;SDS011;10526;50.850;12.928;2023-08-24T14:52:36;10.07;;;3.03;;
20729;SDS011;10526;50.850;12.928;2023-08-24T14:56:59;6.82;;;2.63;;
20729;SDS011;10526;50.850;12.928;2023-08-24T15:01:21;10.23;;;2.50;;
20729;SDS011;10526;50.850;12.928;2023-08-24T15:05:45;7.05;;;2.90;;
20729;SDS011;10526;50.850;12.928;2023-08-24T15:10:21;7.05;;;3.08;;
20729;SDS011;10526;50.850;12.928;2023-08-24T15:14:56;7.97;;;2.58;;
20729;SDS011;10526;50.850;12.928;2023-08-24T15:19:20;8.68;;;2.78;;
20729;SDS011;10526;50.850;12.928;2023-08-24T15:23:42;7.60;;;2.90;;
20729;SDS011;10526;50.850;12.928;2023-08-24T15:28:04;8.68;;;3.00;;
20729;SDS011;10526;50.850;12.928;2023-08-24T15:32:26;7.65;;;2.92;;
20729;SDS011;10526;50.850;12.928;2023-08-24T15:36:48;7.55;;;3.22;;
20729;SDS011;10526;50.850;12.928;2023-08-24T15:41:09;6.15;;;3.03;;
20729;SDS011;10526;50.850;12.928;2023-08-24T15:45:32;9.27;;;3.40;;
20729;SDS011;10526;50.850;12.928;2023-08-24T15:49:54;10.38;;;3.78;;
20729;SDS011;10526;50.850;12.928;2023-08-24T15:54:16;7.07;;;2.88;;
20729;SDS011;10526;50.850;12.928;2023-08-24T15:58:38;7.80;;;3.03;;
20729;SDS011;10526;50.850;12.928;2023-08-24T16:03:00;7.18;;;2.70;;
20729;SDS011;10526;50.850;12.928;2023-08-24T16:07:22;9.38;;;3.80;;
20729;SDS011;10526;50.850;12.928;2023-08-24T16:11:47;9.07;;;3.00;;
20729;SDS011;10526;50.850;12.928;2023-08-24T16:16:09;5.13;;;2.70;;
20729;SDS011;10526;50.850;12.928;2023-08-24T16:20:31;7.57;;;3.20;;
20729;SDS011;10526;50.850;12.928;2023-08-24T16:24:53;7.20;;;2.80;;
20729;SDS011;10526;50.850;12.928;2023-08-24T16:29:15;10.63;;;3.90;;
20729;SDS011;10526;50.850;12.928;2023-08-24T16:33:37;9.52;;;4.10;;
20729;SDS011;10526;50.850;12.928;2023-08-24T16:37:59;7.13;;;3.20;;
20729;SDS011;10526;50.850;12.928;2023-08-24T16:42:24;10.30;;;3.83;;
20729;SDS011;10526;50.850;12.928;2023-08-24T16:46:46;13.77;;;4.20;;
20729;SDS011;10526;50.850;12.928;2023-08-24T16:51:09;15.38;;;4.72;;
20729;SDS011;10526;50.850;12.928;2023-08-24T16:55:31;7.35;;;2.97;;
20729;SDS011;10526;50.850;12.928;2023-08-24T16:59:53;16.23;;;5.45;;
20729;SDS011;10526;50.850;12.928;2023-08-24T17:04:15;8.70;;;2.97;;
20729;SDS011;10526;50.850;12.928;2023-08-24T17:08:37;6.97;;;2.83;;
20729;SDS011;10526;50.850;12.928;2023-08-24T17:12:59;9.38;;;3.13;;
20729;SDS011;10526;50.850;12.928;2023-08-24T17:17:21;12.40;;;3.10;;
20729;SDS011;10526;50.850;12.928;2023-08-24T17:21:43;9.13;;;3.17;;
20729;SDS011;10526;50.850;12.928;2023-08-24T17:26:06;8.27;;;3.20;;
20729;SDS011;10526;50.850;12.928;2023-08-24T17:30:28;18.60;;;4.45;;
20729;SDS011;10526;50.850;12.928;2023-08-24T17:34:49;12.82;;;3.55;;
20729;SDS011;10526;50.850;12.928;2023-08-24T17:39:11;9.85;;;3.60;;
20729;SDS011;10526;50.850;12.928;2023-08-24T17:43:34;13.02;;;3.97;;
20729;SDS011;10526;50.850;12.928;2023-08-24T17:47:58;11.43;;;3.72;;
20729;SDS011;10526;50.850;12.928;2023-08-24T17:52:20;10.15;;;4.10;;
20729;SDS011;10526;50.850;12.928;2023-08-24T17:56:42;8.27;;;3.45;;
20729;SDS011;10526;50.850;12.928;2023-08-24T18:01:04;15.23;;;6.72;;
20729;SDS011;10526;50.850;12.928;2023-08-24T18:05:26;9.38;;;3.97;;
20729;SDS011;10526;50.850;12.928;2023-08-24T18:09:48;12.10;;;4.20;;
20729;SDS011;10526;50.850;12.928;2023-08-24T18:14:10;11.25;;;3.63;;
20729;SDS011;10526;50.850;12.928;2023-08-24T18:18:32;8.95;;;3.50;;
20729;SDS011;10526;50.850;12.928;2023-08-24T18:22:55;15.52;;;3.53;;
20729;SDS011;10526;50.850;12.928;2023-08-24T18:27:18;11.25;;;4.07;;
20729;SDS011;10526;50.850;12.928;2023-08-24T18:31:40;9.63;;;3.83;;
20729;SDS011;10526;50.850;12.928;2023-08-24T18:36:02;12.35;;;5.00;;
20729;SDS011;10526;50.850;12.928;2023-08-24T18:40:24;15.80;;;4.63;;
20729;SDS011;10526;50.850;12.928;2023-08-24T18:44:46;11.65;;;4.30;;
20729;SDS011;10526;50.850;12.928;2023-08-24T18:49:08;10.52;;;4.60;;
20729;SDS011;10526;50.850;12.928;2023-08-24T18:53:30;11.88;;;5.03;;
20729;SDS011;10526;50.850;12.928;2023-08-24T18:57:52;17.40;;;4.68;;
20729;SDS011;10526;50.850;12.928;2023-08-24T19:02:15;11.73;;;4.80;;
20729;SDS011;10526;50.850;12.928;2023-08-24T19:06:39;15.82;;;4.35;;
20729;SDS011;10526;50.850;12.928;2023-08-24T19:11:07;9.73;;;4.70;;
20729;SDS011;10526;50.850;12.928;2023-08-24T19:15:29;14.32;;;4.47;;
20729;SDS011;10526;50.850;12.928;2023-08-24T19:19:52;12.65;;;4.20;;
20729;SDS011;10526;50.850;12.928;2023-08-24T19:24:14;13.90;;;3.97;;
20729;SDS011;10526;50.850;12.928;2023-08-24T19:28:38;11.82;;;4.78;;
20729;SDS011;10526;50.850;12.928;2023-08-24T19:33:00;10.02;;;4.30;;
20729;SDS011;10526;50.850;12.928;2023-08-24T19:37:22;16.10;;;4.80;;
20729;SDS011;10526;50.850;12.928;2023-08-24T19:41:44;12.57;;;4.90;;
20729;SDS011;10526;50.850;12.928;2023-08-24T19:46:19;10.38;;;4.40;;
20729;SDS011;10526;50.850;12.928;2023-08-24T19:50:41;8.75;;;4.05;;
20729;SDS011;10526;50.850;12.928;2023-08-24T19:55:03;13.88;;;5.32;;
20729;SDS011;10526;50.850;12.928;2023-08-24T19:59:26;8.93;;;4.72;;
20729;SDS011;10526;50.850;12.928;2023-08-24T20:03:48;15.52;;;6.50;;
20729;SDS011;10526;50.850;12.928;2023-08-24T20:08:10;13.05;;;5.30;;
20729;SDS011;10526;50.850;12.928;2023-08-24T20:12:31;13.23;;;5.60;;
20729;SDS011;10526;50.850;12.928;2023-08-24T20:16:54;15.18;;;5.35;;
20729;SDS011;10526;50.850;12.928;2023-08-24T20:21:16;15.65;;;5.65;;
20729;SDS011;10526;50.850;12.928;2023-08-24T20:25:39;12.27;;;5.05;;
20729;SDS011;10526;50.850;12.928;2023-08-24T20:30:03;12.10;;;4.68;;
20729;SDS011;10526;50.850;12.928;2023-08-24T20:34:27;10.32;;;4.93;;
20729;SDS011;10526;50.850;12.928;2023-08-24T20:38:49;11.18;;;4.88;;
20729;SDS011;10526;50.850;12.928;2023-08-24T20:43:12;9.48;;;4.28;;
20729;SDS011;10526;50.850;12.928;2023-08-24T20:47:35;9.60;;;4.10;;
20729;SDS011;10526;50.850;12.928;2023-08-24T20:51:57;10.15;;;4.13;;
20729;SDS011;10526;50.850;12.928;2023-08-24T20:56:20;12.48;;;4.63;;
20729;SDS011;10526;50.850;12.928;2023-08-24T21:00:43;12.10;;;4.70;;
20729;SDS011;10526;50.850;12.928;2023-08-24T21:05:05;9.93;;;4.15;;
20729;SDS011;10526;50.850;12.928;2023-08-24T21:09:27;12.88;;;4.00;;
20729;SDS011;10526;50.850;12.928;2023-08-24T21:13:49;17.10;;;5.57;;
20729;SDS011;10526;50.850;12.928;2023-08-24T21:18:11;9.85;;;4.22;;
20729;SDS011;10526;50.850;12.928;2023-08-24T21:22:33;12.75;;;4.20;;
20729;SDS011;10526;50.850;12.928;2023-08-24T21:26:56;10.18;;;4.25;;
20729;SDS011;10526;50.850;12.928;2023-08-24T21:31:18;8.18;;;4.20;;
20729;SDS011;10526;50.850;12.928;2023-08-24T21:35:40;12.23;;;4.88;;
20729;SDS011;10526;50.850;12.928;2023-08-24T21:40:02;11.13;;;4.97;;
20729;SDS011;10526;50.850;12.928;2023-08-24T21:44:24;13.13;;;4.80;;
20729;SDS011;10526;50.850;12.928;2023-08-24T21:48:46;10.77;;;3.97;;
20729;SDS011;10526;50.850;12.928;2023-08-24T21:53:08;13.80;;;5.35;;
20729;SDS011;10526;50.850;12.928;2023-08-24T21:57:30;14.05;;;4.90;;
20729;SDS011;10526;50.850;12.928;2023-08-24T22:01:52;11.18;;;4.20;;
20729;SDS011;10526;50.850;12.928;2023-08-24T22:06:15;9.85;;;4.47;;
20729;SDS011;10526;50.850;12.928;2023-08-24T22:10:37;10.77;;;4.00;;
20729;SDS011;10526;50.850;12.928;2023-08-24T22:14:59;10.70;;;4.28;;
20729;SDS011;10526;50.850;12.928;2023-08-24T22:19:20;9.75;;;4.03;;
20729;SDS011;10526;50.850;12.928;2023-08-24T22:23:47;11.00;;;4.10;;
20729;SDS011;10526;50.850;12.928;2023-08-24T22:28:09;12.00;;;4.28;;
20729;SDS011;10526;50.850;12.928;2023-08-24T22:32:31;10.40;;;4.10;;
20729;SDS011;10526;50.850;12.928;2023-08-24T22:36:54;11.50;;;4.50;;
20729;SDS011;10526;50.850;12.928;2023-08-24T22:41:16;15.02;;;4.00;;
20729;SDS011;10526;50.850;12.928;2023-08-24T22:45:38;13.10;;;4.05;;
20729;SDS011;10526;50.850;12.928;2023-08-24T22:50:02;8.98;;;3.85;;
20729;SDS011;10526;50.850;12.928;2023-08-24T22:54:29;10.88;;;4.18;;
20729;SDS011;10526;50.850;12.928;2023-08-24T22:58:51;11.30;;;4.03;;
20729;SDS011;10526;50.850;12.928;2023-08-24T23:03:13;9.02;;;4.30;;
20729;SDS011;10526;50.850;12.928;2023-08-24T23:07:35;14.70;;;4.35;;
20729;SDS011;10526;50.850;12.928;2023-08-24T23:11:57;9.55;;;3.85;;
20729;SDS011;10526;50.850;12.928;2023-08-24T23:16:20;10.10;;;4.80;;
20729;SDS011;10526;50.850;12.928;2023-08-24T23:20:42;10.30;;;4.28;;
20729;SDS011;10526;50.850;12.928;2023-08-24T23:25:04;9.38;;;3.80;;
20729;SDS011;10526;50.850;12.928;2023-08-24T23:29:27;14.00;;;4.20;;
20729;SDS011;10526;50.850;12.928;2023-08-24T23:33:49;15.10;;;4.95;;
20729;SDS011;10526;50.850;12.928;2023-08-24T23:38:11;13.10;;;4.70;;
20729;SDS011;10526;50.850;12.928;2023-08-24T23:42:33;10.52;;;4.32;;
20729;SDS011;10526;50.850;12.928;2023-08-24T23:46:55;9.85;;;4.35;;
20729;SDS011;10526;50.850;12.928;2023-08-24T23:51:17;9.70;;;4.25;;
20729;SDS011;10526;50.850;12.928;2023-08-24T23:55:40;11.93;;;4.90;;
